Time;durP1;ratioP1;P1;durP2;ratioP2;P2;SDS_P1;SDS_P2;PMS_P1;PMS_P2;Temp;Humidity;BMP_temperature;BMP_pressure;BME280_temperature;BME280_humidity;BME280_pressure;Samples;Min_cycle;Max_cycle;Signal;HPM_P1;HPM_P2
2023/06/14 00:00:52;;;;;;;0.70;0.40;;;16.60;71.80;;;;;;5068957;28;20445;-66
2023/06/14 00:03:21;;;;;;;1.60;0.60;;;16.60;71.90;;;;;;5053908;28;20515;-66
2023/06/14 00:05:48;;;;;;;1.40;0.63;;;16.60;71.90;;;;;;5071665;28;20088;-66
2023/06/14 00:08:14;;;;;;;2.40;0.82;;;16.50;71.90;;;;;;5054884;28;20134;-66
2023/06/14 00:10:41;;;;;;;0.50;0.30;;;16.50;71.90;;;;;;5054083;28;20040;-66
2023/06/14 00:13:09;;;;;;;1.77;0.75;;;16.50;72.00;;;;;;5071542;28;20068;-67
2023/06/14 00:15:35;;;;;;;1.95;0.70;;;16.50;72.10;;;;;;5071256;28;20626;-67
2023/06/14 00:18:02;;;;;;;2.05;0.70;;;16.40;72.10;;;;;;5071794;28;20098;-66
2023/06/14 00:20:29;;;;;;;1.85;0.60;;;16.40;72.20;;;;;;5054713;28;20071;-66
2023/06/14 00:22:55;;;;;;;1.10;0.60;;;16.40;72.30;;;;;;5071425;28;20041;-66
2023/06/14 00:25:23;;;;;;;1.27;0.68;;;16.30;72.40;;;;;;5070514;28;20094;-67
2023/06/14 00:27:49;;;;;;;2.20;1.00;;;16.30;72.70;;;;;;5054774;28;20051;-66
2023/06/14 00:30:15;;;;;;;0.95;0.40;;;16.20;72.90;;;;;;5072076;28;20155;-67
2023/06/14 00:32:42;;;;;;;0.88;0.60;;;16.10;73.10;;;;;;5070466;28;20040;-67
2023/06/14 00:35:09;;;;;;;0.80;0.55;;;15.90;73.50;;;;;;5071046;28;20052;-67
2023/06/14 00:37:35;;;;;;;1.67;0.82;;;15.90;73.60;;;;;;5053648;28;20036;-67
2023/06/14 00:40:02;;;;;;;3.00;0.82;;;15.70;74.00;;;;;;5072326;28;20116;-67
2023/06/14 00:42:28;;;;;;;1.80;0.60;;;15.60;74.70;;;;;;5070839;28;20093;-67
2023/06/14 00:44:55;;;;;;;1.80;0.82;;;15.40;74.80;;;;;;5071579;28;20036;-67
2023/06/14 00:47:21;;;;;;;5.85;0.90;;;15.30;75.10;;;;;;5070662;28;20052;-67
2023/06/14 00:49:48;;;;;;;1.58;1.10;;;15.10;75.50;;;;;;5070722;28;20094;-67
2023/06/14 00:52:16;;;;;;;2.15;0.77;;;15.00;75.50;;;;;;5071207;28;20110;-67
2023/06/14 00:54:42;;;;;;;3.40;0.98;;;14.90;76.40;;;;;;5054005;28;20131;-67
2023/06/14 00:57:10;;;;;;;0.80;0.52;;;14.80;76.80;;;;;;5070415;28;20131;-67
2023/06/14 00:59:48;;;;;;;4.15;0.70;;;14.60;76.60;;;;;;5071209;28;20715;-67
2023/06/14 01:02:15;;;;;;;1.08;0.60;;;14.60;77.70;;;;;;5071853;28;20044;-67
2023/06/14 01:04:46;;;;;;;1.42;0.82;;;14.50;77.80;;;;;;5070345;28;20040;-67
2023/06/14 01:07:50;;;;;;;1.52;0.60;;;14.40;78.00;;;;;;5069745;28;20041;-67
2023/06/14 01:10:35;;;;;;;1.38;0.90;;;14.30;78.80;;;;;;5062248;28;20109;-67
2023/06/14 01:13:24;;;;;;;1.38;0.63;;;14.20;78.60;;;;;;5069251;28;20489;-67
2023/06/14 01:15:51;;;;;;;0.60;0.50;;;14.10;79.50;;;;;;5067335;28;20048;-67
2023/06/14 01:18:17;;;;;;;1.45;0.90;;;14.00;79.20;;;;;;5069917;28;20044;-67
2023/06/14 01:20:44;;;;;;;1.20;0.60;;;13.90;78.90;;;;;;5069885;28;20473;-66
2023/06/14 01:23:12;;;;;;;1.08;0.70;;;13.90;79.40;;;;;;5053410;28;20051;-66
2023/06/14 01:25:38;;;;;;;1.23;0.52;;;13.80;80.20;;;;;;5070098;28;20354;-67
2023/06/14 01:28:12;;;;;;;3.00;0.95;;;13.80;80.00;;;;;;5069796;28;20055;-66
2023/06/14 01:30:47;;;;;;;1.38;0.75;;;13.70;80.10;;;;;;5053235;28;20634;-67
2023/06/14 01:33:15;;;;;;;1.38;0.90;;;13.70;80.40;;;;;;5069828;28;20051;-66
2023/06/14 01:35:47;;;;;;;2.13;0.70;;;13.70;81.00;;;;;;5070513;28;20499;-66
2023/06/14 01:38:14;;;;;;;2.15;0.73;;;13.60;80.90;;;;;;5071044;28;20384;-66
2023/06/14 01:40:42;;;;;;;1.45;0.70;;;13.60;81.10;;;;;;5069159;28;20043;-66
2023/06/14 01:43:10;;;;;;;1.20;0.70;;;13.60;81.70;;;;;;5070635;28;20039;-66
2023/06/14 01:45:36;;;;;;;2.53;1.00;;;13.50;81.20;;;;;;5070811;28;20048;-66
2023/06/14 01:48:03;;;;;;;1.92;0.88;;;13.50;82.10;;;;;;5052662;28;20044;-66
2023/06/14 01:50:30;;;;;;;3.17;1.00;;;13.40;82.30;;;;;;5069477;28;20044;-66
2023/06/14 01:52:56;;;;;;;1.10;0.90;;;13.40;82.30;;;;;;5069686;28;20051;-66
2023/06/14 01:55:24;;;;;;;1.42;0.90;;;13.40;82.60;;;;;;5070480;28;20047;-67
2023/06/14 01:57:51;;;;;;;1.25;0.77;;;13.40;82.20;;;;;;5069514;28;20541;-66
2023/06/14 02:00:18;;;;;;;1.02;0.50;;;13.30;82.30;;;;;;5069737;28;20036;-66
2023/06/14 02:02:44;;;;;;;1.02;0.63;;;13.30;82.70;;;;;;5052121;28;20037;-66
2023/06/14 02:05:10;;;;;;;1.13;0.60;;;13.30;82.90;;;;;;5069277;28;20116;-66
2023/06/14 02:07:36;;;;;;;1.63;0.68;;;13.30;82.80;;;;;;5069451;28;20084;-66
2023/06/14 02:10:04;;;;;;;1.98;0.52;;;13.20;83.40;;;;;;5052203;28;20052;-66
2023/06/14 02:12:30;;;;;;;1.67;0.82;;;13.20;83.40;;;;;;5069156;28;20519;-66
2023/06/14 02:14:56;;;;;;;2.03;0.80;;;13.20;83.50;;;;;;5070574;28;20044;-66
2023/06/14 02:17:22;;;;;;;1.77;0.93;;;13.20;84.20;;;;;;5068612;28;20076;-67
2023/06/14 02:19:48;;;;;;;1.88;1.00;;;13.10;83.80;;;;;;5070406;28;20044;-66
2023/06/14 02:22:15;;;;;;;3.55;0.70;;;13.10;83.60;;;;;;5069003;28;20037;-66
2023/06/14 02:24:45;;;;;;;1.35;0.93;;;13.10;84.40;;;;;;5068858;28;20120;-66
2023/06/14 02:27:11;;;;;;;;;;;13.10;84.80;;;;;;5070888;28;20123;-66
2023/06/14 02:29:37;;;;;;;5.60;1.20;;;13.10;85.90;;;;;;5068406;28;20007;-67
2023/06/14 02:32:07;;;;;;;3.28;0.90;;;13.10;84.90;;;;;;5068783;28;20044;-66
2023/06/14 02:34:35;;;;;;;1.20;0.55;;;13.10;84.90;;;;;;5069255;28;20395;-66
2023/06/14 02:37:05;;;;;;;1.23;0.50;;;13.10;85.00;;;;;;5068040;28;20712;-66
2023/06/14 02:39:30;;;;;;;2.47;0.77;;;13.10;84.40;;;;;;5051978;28;20048;-66
2023/06/14 02:41:56;;;;;;;1.90;0.90;;;13.10;85.20;;;;;;5069809;28;20036;-66
2023/06/14 02:44:27;;;;;;;0.98;0.75;;;13.00;85.40;;;;;;5069174;28;20044;-66
2023/06/14 02:46:55;;;;;;;4.20;1.13;;;13.10;86.50;;;;;;5069969;28;20527;-66
2023/06/14 02:49:21;;;;;;;1.48;0.95;;;13.10;85.70;;;;;;5070171;28;20401;-66
2023/06/14 02:51:47;;;;;;;0.95;0.65;;;13.10;87.40;;;;;;5067513;28;20052;-66
2023/06/14 02:54:13;;;;;;;1.73;0.98;;;13.10;86.60;;;;;;5051879;28;20128;-66
2023/06/14 02:56:39;;;;;;;1.33;0.63;;;13.10;86.40;;;;;;5068752;28;20106;-66
2023/06/14 02:59:05;;;;;;;3.03;1.15;;;13.20;86.80;;;;;;5068115;28;20040;-66
2023/06/14 03:01:33;;;;;;;2.63;0.75;;;13.10;86.50;;;;;;5068422;28;20549;-65
2023/06/14 03:04:03;;;;;;;0.82;0.50;;;13.20;86.70;;;;;;5068669;28;20033;-66
2023/06/14 03:06:32;;;;;;;1.35;0.63;;;13.30;86.50;;;;;;5067739;28;20040;-66
2023/06/14 03:09:10;;;;;;;1.20;0.65;;;13.40;86.10;;;;;;5069743;28;20045;-66
2023/06/14 03:11:35;;;;;;;1.30;0.60;;;13.40;86.40;;;;;;5067841;28;20048;-66
2023/06/14 03:14:04;;;;;;;1.27;0.80;;;13.40;86.60;;;;;;5068262;28;20131;-66
2023/06/14 03:16:31;;;;;;;1.13;0.60;;;13.50;86.50;;;;;;5069821;28;20045;-66
2023/06/14 03:18:57;;;;;;;1.83;0.95;;;13.60;88.40;;;;;;5068043;28;20033;-66
2023/06/14 03:21:23;;;;;;;0.82;0.50;;;13.60;87.80;;;;;;5069419;28;20047;-66
2023/06/14 03:23:49;;;;;;;2.20;0.95;;;13.60;86.90;;;;;;5068429;28;20045;-66
2023/06/14 03:26:17;;;;;;;2.10;0.80;;;13.70;87.60;;;;;;5068002;28;20054;-66
2023/06/14 03:28:48;;;;;;;1.05;0.80;;;13.60;87.20;;;;;;5051812;28;20063;-66
2023/06/14 03:31:14;;;;;;;2.22;1.23;;;13.70;88.00;;;;;;5067905;28;20044;-66
2023/06/14 03:33:40;;;;;;;1.45;0.65;;;13.70;88.00;;;;;;5067767;28;20381;-66
2023/06/14 03:36:06;;;;;;;0.90;0.40;;;13.70;88.30;;;;;;5053120;28;20036;-66
2023/06/14 03:38:32;;;;;;;1.98;0.90;;;13.80;88.10;;;;;;5072033;28;20048;-66
2023/06/14 03:40:58;;;;;;;1.77;0.70;;;13.80;88.00;;;;;;5071659;28;20041;-66
2023/06/14 03:43:24;;;;;;;1.20;0.70;;;13.80;88.70;;;;;;5072043;28;20036;-66
2023/06/14 03:45:51;;;;;;;2.05;0.55;;;13.80;89.40;;;;;;5055296;28;20137;-66
2023/06/14 03:48:16;;;;;;;1.85;1.13;;;13.90;88.30;;;;;;5073067;28;20098;-66
2023/06/14 03:50:44;;;;;;;2.08;0.95;;;13.90;87.90;;;;;;5055248;28;20052;-66
2023/06/14 03:53:10;;;;;;;1.48;0.88;;;13.90;89.70;;;;;;5071785;28;20048;-66
2023/06/14 03:55:37;;;;;;;0.98;0.52;;;13.90;90.00;;;;;;5071576;28;20048;-66
2023/06/14 03:58:03;;;;;;;1.05;0.60;;;13.90;89.00;;;;;;5071790;28;20098;-66
2023/06/14 04:00:30;;;;;;;1.98;0.70;;;14.00;89.20;;;;;;5073180;28;20036;-67
2023/06/14 04:02:55;;;;;;;2.80;1.25;;;14.00;89.40;;;;;;5071014;28;20512;-66
2023/06/14 04:05:21;;;;;;;1.10;0.60;;;14.00;88.90;;;;;;5071513;28;20079;-66
2023/06/14 04:07:48;;;;;;;1.02;0.75;;;14.00;90.20;;;;;;5070889;28;20102;-66
2023/06/14 04:10:16;;;;;;;2.67;0.70;;;14.10;89.20;;;;;;5054943;28;20037;-66
2023/06/14 04:12:42;;;;;;;0.90;0.40;;;14.10;90.00;;;;;;5072593;28;20181;-66
2023/06/14 04:15:09;;;;;;;1.90;0.85;;;14.10;89.40;;;;;;5072165;28;20627;-66
2023/06/14 04:17:35;;;;;;;2.03;0.70;;;14.10;89.60;;;;;;5071452;28;20481;-67
2023/06/14 04:20:04;;;;;;;1.83;0.80;;;14.10;89.70;;;;;;5054584;28;20041;-66
2023/06/14 04:22:31;;;;;;;5.37;1.03;;;14.20;89.70;;;;;;5072015;28;20691;-66
2023/06/14 04:24:57;;;;;;;4.05;0.60;;;14.20;89.80;;;;;;5071486;28;20366;-67
2023/06/14 04:27:25;;;;;;;0.85;0.47;;;14.20;90.00;;;;;;5071658;28;20048;-67
2023/06/14 04:29:56;;;;;;;0.75;0.52;;;14.20;89.60;;;;;;5071988;28;20044;-66
2023/06/14 04:32:26;;;;;;;2.08;0.65;;;14.30;89.50;;;;;;5072676;28;20424;-66
2023/06/14 04:34:57;;;;;;;2.30;0.85;;;14.30;89.70;;;;;;5054696;28;20444;-65
2023/06/14 04:37:23;;;;;;;1.30;0.70;;;14.30;90.40;;;;;;5070438;28;20045;-67
2023/06/14 04:39:49;;;;;;;1.90;0.90;;;14.30;90.10;;;;;;5070053;28;20072;-66
2023/06/14 04:42:16;;;;;;;1.60;0.85;;;14.40;90.50;;;;;;5070239;28;20040;-67
2023/06/14 04:44:43;;;;;;;1.60;0.70;;;14.40;90.40;;;;;;5070812;28;20037;-67
2023/06/14 04:47:12;;;;;;;3.50;1.05;;;14.40;90.30;;;;;;5069186;28;20040;-66
2023/06/14 04:49:40;;;;;;;3.28;0.95;;;14.50;90.20;;;;;;5069367;28;20295;-66
2023/06/14 04:52:06;;;;;;;1.00;0.70;;;14.60;90.40;;;;;;5070786;28;20071;-67
2023/06/14 04:54:33;;;;;;;1.17;0.60;;;14.60;90.60;;;;;;5053220;28;20135;-67
2023/06/14 04:56:59;;;;;;;1.90;0.93;;;14.60;90.50;;;;;;5052687;28;20123;-66
2023/06/14 04:59:25;;;;;;;1.13;0.63;;;14.60;90.20;;;;;;5070743;28;20047;-67
2023/06/14 05:01:52;;;;;;;1.70;0.80;;;14.70;90.70;;;;;;5069479;28;20037;-65
2023/06/14 05:04:19;;;;;;;1.88;0.75;;;14.80;90.80;;;;;;5052471;28;20079;-66
2023/06/14 05:06:47;;;;;;;1.95;0.90;;;14.80;90.70;;;;;;5070950;28;20048;-66
2023/06/14 05:09:15;;;;;;;2.50;1.08;;;14.80;90.70;;;;;;5070675;28;20120;-66
2023/06/14 05:11:43;;;;;;;1.67;0.70;;;14.90;90.60;;;;;;5069037;28;20401;-67
2023/06/14 05:14:13;;;;;;;3.35;1.20;;;15.00;90.60;;;;;;5069652;28;20045;-65
2023/06/14 05:16:39;;;;;;;2.97;0.95;;;15.10;90.80;;;;;;5069397;28;20493;-66
2023/06/14 05:19:06;;;;;;;1.60;0.93;;;15.20;90.30;;;;;;5070266;28;20032;-66
2023/06/14 05:21:33;;;;;;;2.33;1.00;;;15.30;90.20;;;;;;5069142;28;20043;-66
2023/06/14 05:23:59;;;;;;;1.58;0.88;;;15.40;90.40;;;;;;5070781;28;20032;-66
2023/06/14 05:26:28;;;;;;;6.45;1.17;;;15.50;90.30;;;;;;5069755;28;20051;-66
2023/06/14 05:28:58;;;;;;;1.58;0.95;;;15.60;90.40;;;;;;5069264;28;20040;-66
2023/06/14 05:31:25;;;;;;;2.67;0.93;;;15.70;90.40;;;;;;5069265;28;20385;-67
2023/06/14 05:33:52;;;;;;;1.52;0.80;;;15.80;90.20;;;;;;5068403;28;20452;-66
2023/06/14 05:36:18;;;;;;;3.40;1.05;;;15.90;90.10;;;;;;5070337;28;20386;-65
2023/06/14 05:38:45;;;;;;;1.25;0.82;;;16.10;90.00;;;;;;5051742;28;20036;-64
2023/06/14 05:41:11;;;;;;;11.05;2.45;;;16.10;90.00;;;;;;5068718;28;20142;-66
2023/06/14 05:43:36;;;;;;;1.40;0.82;;;16.30;89.70;;;;;;5051985;28;20040;-66
2023/06/14 05:46:02;;;;;;;1.55;0.88;;;16.40;89.50;;;;;;5068499;28;20036;-65
2023/06/14 05:48:29;;;;;;;3.65;1.10;;;16.50;89.40;;;;;;5068798;28;20400;-64
2023/06/14 05:50:55;;;;;;;2.13;0.88;;;16.60;89.20;;;;;;5068802;28;20056;-65
2023/06/14 05:53:21;;;;;;;1.13;0.65;;;16.70;89.00;;;;;;5069514;28;20048;-65
2023/06/14 05:55:47;;;;;;;2.65;0.80;;;16.90;88.60;;;;;;5068642;28;20040;-66
2023/06/14 05:58:13;;;;;;;1.33;0.85;;;17.00;88.50;;;;;;5068458;28;20044;-67
2023/06/14 06:00:40;;;;;;;3.22;0.93;;;17.10;88.30;;;;;;5067004;28;20032;-66
2023/06/14 06:03:08;;;;;;;3.05;0.70;;;17.20;87.80;;;;;;5051906;28;20133;-66
2023/06/14 06:05:33;;;;;;;4.65;1.38;;;17.30;87.60;;;;;;5069579;28;20040;-65
2023/06/14 06:08:00;;;;;;;1.30;0.82;;;17.40;87.80;;;;;;5067945;28;20047;-67
2023/06/14 06:10:26;;;;;;;1.35;0.70;;;17.50;87.20;;;;;;5070306;28;20500;-66
2023/06/14 06:12:54;;;;;;;2.58;0.90;;;17.60;87.30;;;;;;5070244;28;20119;-67
2023/06/14 06:15:20;;;;;;;1.25;0.80;;;17.80;86.80;;;;;;5068142;28;20040;-66
2023/06/14 06:17:46;;;;;;;2.05;0.60;;;17.90;86.30;;;;;;5068934;28;20048;-66
2023/06/14 06:20:12;;;;;;;3.25;0.93;;;18.10;86.50;;;;;;5070048;28;20039;-64
2023/06/14 06:22:38;;;;;;;0.88;0.60;;;18.20;85.60;;;;;;5068339;28;20150;-65
2023/06/14 06:25:04;;;;;;;1.83;0.60;;;18.40;86.00;;;;;;5069153;28;20044;-65
2023/06/14 06:27:30;;;;;;;4.53;1.00;;;18.60;85.60;;;;;;5069557;28;20052;-66
2023/06/14 06:29:56;;;;;;;1.60;0.68;;;18.70;85.30;;;;;;5065712;28;20229;-67
2023/06/14 06:32:22;;;;;;;1.90;0.90;;;18.90;85.10;;;;;;5064151;28;20083;-66
2023/06/14 06:34:48;;;;;;;0.50;0.40;;;19.20;84.50;;;;;;5053579;28;20382;-67
2023/06/14 06:37:14;;;;;;;0.90;0.50;;;19.50;85.00;;;;;;5027602;28;20111;-67
2023/06/14 06:39:40;;;;;;;1.67;0.80;;;19.70;85.20;;;;;;5033393;28;20124;-68
2023/06/14 06:42:06;;;;;;;0.98;0.77;;;20.00;84.80;;;;;;5046686;28;20116;-68
2023/06/14 06:44:32;;;;;;;1.17;0.98;;;20.20;84.80;;;;;;5045264;28;20041;-67
2023/06/14 06:46:59;;;;;;;0.88;0.60;;;20.60;84.70;;;;;;5046809;28;20083;-66
2023/06/14 06:49:24;;;;;;;1.05;0.77;;;20.80;84.50;;;;;;5046087;28;20055;-66
2023/06/14 06:52:20;;;;;;;1.45;0.80;;;21.10;83.10;;;;;;5048170;28;20057;-67
2023/06/14 06:54:45;;;;;;;1.55;0.93;;;21.40;80.40;;;;;;5064044;28;20049;-67
2023/06/14 06:57:11;;;;;;;0.98;0.60;;;21.60;81.60;;;;;;5064435;28;20033;-68
2023/06/14 06:59:37;;;;;;;2.13;0.80;;;21.90;82.70;;;;;;5065679;28;20033;-67
2023/06/14 07:02:04;;;;;;;3.20;0.57;;;22.00;81.10;;;;;;5066926;28;20128;-68
2023/06/14 07:04:29;;;;;;;1.17;0.52;;;22.20;80.80;;;;;;5064586;28;20098;-66
2023/06/14 07:06:55;;;;;;;1.00;0.55;;;22.20;79.30;;;;;;5048515;28;20056;-67
2023/06/14 07:09:22;;;;;;;0.45;0.38;;;22.50;77.10;;;;;;5065194;28;20570;-68
2023/06/14 07:11:48;;;;;;;1.10;0.50;;;22.60;78.90;;;;;;5047466;28;20052;-67
2023/06/14 07:14:14;;;;;;;0.90;0.47;;;22.80;78.90;;;;;;5067112;28;20102;-65
2023/06/14 07:16:41;;;;;;;0.75;0.60;;;22.80;77.50;;;;;;5064650;28;20052;-67
2023/06/14 07:19:07;;;;;;;2.90;0.95;;;22.90;77.00;;;;;;5065577;28;20043;-68
2023/06/14 07:21:33;;;;;;;0.65;0.52;;;23.00;76.40;;;;;;5067324;28;20039;-67
2023/06/14 07:23:59;;;;;;;0.82;0.50;;;23.20;76.20;;;;;;5065474;28;20405;-65
2023/06/14 07:26:25;;;;;;;1.95;0.70;;;23.30;75.40;;;;;;5066666;28;20041;-68
2023/06/14 07:28:52;;;;;;;1.00;0.40;;;23.40;75.10;;;;;;5058398;28;20505;-66
2023/06/14 07:31:19;;;;;;;1.15;0.40;;;23.50;75.00;;;;;;5044375;28;20037;-67
2023/06/14 07:33:45;;;;;;;1.33;0.55;;;23.60;74.20;;;;;;5046866;28;20386;-65
2023/06/14 07:36:11;;;;;;;1.25;0.60;;;23.70;73.50;;;;;;5047991;28;20037;-66
2023/06/14 07:38:37;;;;;;;1.45;0.57;;;23.70;73.20;;;;;;5044458;28;20052;-68
2023/06/14 07:41:03;;;;;;;1.05;0.50;;;23.70;72.70;;;;;;5045453;28;20037;-67
2023/06/14 07:43:29;;;;;;;1.27;0.60;;;23.90;72.90;;;;;;5045149;28;20508;-67
2023/06/14 07:45:55;;;;;;;0.88;0.50;;;24.20;73.30;;;;;;5045344;28;20041;-67
2023/06/14 07:48:21;;;;;;;0.80;0.60;;;24.40;71.40;;;;;;5030056;28;20041;-68
2023/06/14 07:50:47;;;;;;;1.35;0.55;;;24.50;72.00;;;;;;5047866;28;20141;-66
2023/06/14 07:53:13;;;;;;;0.73;0.40;;;24.70;70.30;;;;;;5053478;28;20132;-67
2023/06/14 07:55:39;;;;;;;0.88;0.40;;;24.90;71.30;;;;;;5067975;28;20127;-66
2023/06/14 07:58:06;;;;;;;0.85;0.65;;;25.00;69.50;;;;;;5067991;28;20084;-67
2023/06/14 08:00:32;;;;;;;2.17;0.63;;;25.10;69.80;;;;;;5067319;28;20481;-67
2023/06/14 08:03:01;;;;;;;1.05;0.52;;;25.10;68.60;;;;;;5068205;28;20037;-68
2023/06/14 08:05:27;;;;;;;0.65;0.50;;;24.90;68.20;;;;;;5068133;28;20068;-67
2023/06/14 08:07:53;;;;;;;1.52;0.75;;;25.00;68.40;;;;;;5068732;28;20075;-67
2023/06/14 08:10:20;;;;;;;1.50;0.50;;;25.00;67.40;;;;;;5051258;28;20127;-65
2023/06/14 08:12:46;;;;;;;2.10;0.75;;;25.00;67.40;;;;;;5068935;28;20115;-66
2023/06/14 08:15:12;;;;;;;1.25;0.50;;;25.10;65.90;;;;;;5067841;28;20127;-66
2023/06/14 08:17:38;;;;;;;1.73;0.50;;;25.00;66.70;;;;;;5069171;28;20094;-67
2023/06/14 08:20:05;;;;;;;0.93;0.50;;;25.00;65.60;;;;;;5067538;28;20048;-67
2023/06/14 08:22:33;;;;;;;1.45;0.60;;;25.10;66.80;;;;;;5068835;28;20043;-67
2023/06/14 08:25:00;;;;;;;0.87;0.47;;;25.30;65.80;;;;;;5054891;28;20127;-67
2023/06/14 08:27:26;;;;;;;1.60;0.88;;;25.40;66.10;;;;;;5070507;28;20044;-66
2023/06/14 08:29:52;;;;;;;1.17;0.55;;;25.60;66.30;;;;;;5071253;28;20131;-67
2023/06/14 08:32:18;;;;;;;0.85;0.47;;;25.70;64.80;;;;;;5071343;28;20138;-67
2023/06/14 08:34:44;;;;;;;0.93;0.60;;;25.70;65.10;;;;;;5070825;28;20048;-66
2023/06/14 08:37:10;;;;;;;1.33;0.40;;;25.70;64.50;;;;;;5072088;28;20040;-67
2023/06/14 08:39:36;;;;;;;1.45;0.60;;;25.80;65.10;;;;;;5071232;28;20063;-67
2023/06/14 08:42:03;;;;;;;0.80;0.40;;;26.00;65.70;;;;;;5071668;28;20047;-67
2023/06/14 08:44:30;;;;;;;1.27;0.70;;;26.10;63.70;;;;;;5071032;28;20576;-67
2023/06/14 08:46:59;;;;;;;0.73;0.32;;;26.30;63.60;;;;;;5070862;28;20044;-67
2023/06/14 08:49:25;;;;;;;1.23;0.50;;;26.40;62.20;;;;;;5053752;28;20044;-66
2023/06/14 08:51:59;;;;;;;2.10;0.52;;;26.40;61.80;;;;;;5070623;28;20565;-67
2023/06/14 08:54:35;;;;;;;4.68;0.68;;;26.60;63.50;;;;;;5069822;28;20041;-66
2023/06/14 08:57:04;;;;;;;1.15;0.50;;;26.90;60.10;;;;;;5054002;28;20033;-68
2023/06/14 08:59:33;;;;;;;2.20;0.77;;;27.00;62.60;;;;;;5070467;28;20079;-66
2023/06/14 09:02:00;;;;;;;1.13;0.73;;;27.20;62.70;;;;;;5069896;28;20177;-67
2023/06/14 09:04:29;;;;;;;1.30;0.63;;;27.20;62.10;;;;;;5071956;28;20047;-66
2023/06/14 09:06:55;;;;;;;1.65;0.60;;;27.30;61.60;;;;;;5053599;28;20051;-66
2023/06/14 09:09:25;;;;;;;4.35;0.90;;;27.30;61.90;;;;;;5071211;28;20393;-66
2023/06/14 09:11:52;;;;;;;1.05;0.43;;;27.40;62.20;;;;;;5053852;28;20033;-65
2023/06/14 09:14:21;;;;;;;1.10;0.50;;;27.40;60.70;;;;;;5054035;28;20036;-67
2023/06/14 09:16:47;;;;;;;3.45;0.80;;;27.30;59.30;;;;;;5066379;28;20044;-66
2023/06/14 09:19:24;;;;;;;1.85;0.57;;;27.30;58.90;;;;;;5064096;28;20033;-66
2023/06/14 09:21:52;;;;;;;0.77;0.43;;;27.30;58.70;;;;;;5049239;28;20036;-66
2023/06/14 09:24:19;;;;;;;0.70;0.22;;;27.30;58.90;;;;;;5049172;28;20052;-66
2023/06/14 09:26:47;;;;;;;2.50;0.88;;;27.40;59.80;;;;;;5050141;28;20041;-68
2023/06/14 09:29:13;;;;;;;1.02;0.43;;;27.50;56.90;;;;;;5049849;28;20045;-66
2023/06/14 09:31:39;;;;;;;0.93;0.38;;;27.60;58.50;;;;;;5056931;28;20041;-66
2023/06/14 09:34:05;;;;;;;1.58;0.40;;;27.60;57.60;;;;;;5049139;28;20041;-66
2023/06/14 09:36:32;;;;;;;1.00;0.40;;;27.60;57.60;;;;;;5048636;28;20055;-66
2023/06/14 09:39:08;;;;;;;1.05;0.50;;;27.60;58.40;;;;;;5048834;28;20056;-67
2023/06/14 09:41:35;;;;;;;0.43;0.30;;;27.80;58.90;;;;;;5049177;28;20115;-67
2023/06/14 09:44:08;;;;;;;0.57;0.40;;;27.90;58.60;;;;;;5048100;28;20037;-66
2023/06/14 09:46:36;;;;;;;0.77;0.50;;;28.10;57.50;;;;;;5048603;28;20033;-66
2023/06/14 09:49:03;;;;;;;0.80;0.40;;;28.10;57.10;;;;;;5048042;28;20171;-66
2023/06/14 09:51:32;;;;;;;1.80;0.40;;;27.80;55.00;;;;;;5060556;28;20045;-66
2023/06/14 09:54:06;;;;;;;3.28;0.73;;;27.70;56.10;;;;;;5068363;28;20044;-65
2023/06/14 09:56:35;;;;;;;1.20;0.60;;;27.80;54.70;;;;;;5069830;28;20119;-66
2023/06/14 09:59:09;;;;;;;1.65;0.63;;;27.80;55.10;;;;;;5067781;28;20110;-66
2023/06/14 10:01:41;;;;;;;0.40;0.28;;;27.90;55.20;;;;;;5069579;28;20120;-67
2023/06/14 10:04:08;;;;;;;0.82;0.52;;;28.00;56.60;;;;;;5069466;28;20047;-65
2023/06/14 10:06:39;;;;;;;2.45;0.70;;;28.30;55.90;;;;;;5067627;28;20036;-67
2023/06/14 10:09:08;;;;;;;0.75;0.40;;;28.40;55.20;;;;;;5056734;28;20072;-65
2023/06/14 10:11:35;;;;;;;1.05;0.40;;;28.50;55.80;;;;;;5047845;28;20036;-66
2023/06/14 10:14:04;;;;;;;1.88;0.57;;;28.50;54.40;;;;;;5049368;28;20041;-67
2023/06/14 10:17:01;;;;;;;0.98;0.50;;;28.50;54.70;;;;;;5061160;28;20112;-67
2023/06/14 10:19:39;;;;;;;0.88;0.30;;;28.60;54.20;;;;;;5068729;28;20112;-67
2023/06/14 10:22:14;;;;;;;2.83;0.80;;;28.40;54.60;;;;;;5049353;28;20041;-67
2023/06/14 10:24:45;;;;;;;1.13;0.40;;;28.30;54.30;;;;;;5048212;28;20047;-66
2023/06/14 10:27:13;;;;;;;1.80;0.63;;;28.30;54.40;;;;;;5047452;28;20040;-66
2023/06/14 10:29:57;;;;;;;;;;;28.40;53.30;;;;;;5031552;28;20043;-66
2023/06/14 10:32:25;;;;;;;0.93;0.40;;;28.50;53.60;;;;;;5047977;28;20257;-66
2023/06/14 10:34:59;;;;;;;1.38;0.60;;;28.30;53.70;;;;;;5048096;28;20051;-66
2023/06/14 10:37:25;;;;;;;1.60;0.60;;;28.30;54.70;;;;;;5047605;28;20041;-66
2023/06/14 10:39:51;;;;;;;8.20;0.60;;;28.50;54.80;;;;;;5046931;28;20065;-66
2023/06/14 10:42:17;;;;;;;0.70;0.47;;;28.60;53.90;;;;;;5047615;28;20493;-65
2023/06/14 10:44:50;;;;;;;0.80;0.45;;;28.50;52.50;;;;;;5048489;28;20033;-67
2023/06/14 10:47:35;;;;;;;0.95;0.55;;;28.30;50.40;;;;;;5047109;28;20050;-67
2023/06/14 10:50:07;;;;;;;1.30;0.55;;;28.00;52.60;;;;;;5043163;28;20043;-66
2023/06/14 10:52:35;;;;;;;0.65;0.50;;;27.90;52.70;;;;;;5067382;28;20083;-66
2023/06/14 10:55:03;;;;;;;0.68;0.38;;;27.90;52.90;;;;;;5050050;28;20041;-67
2023/06/14 10:57:31;;;;;;;0.95;0.43;;;28.00;53.70;;;;;;5068348;28;20055;-66
2023/06/14 11:00:13;;;;;;;0.80;0.50;;;28.20;54.30;;;;;;5050326;28;20036;-65
2023/06/14 11:03:16;;;;;;;0.65;0.38;;;28.40;54.20;;;;;;5066740;28;20040;-67
2023/06/14 11:05:57;;;;;;;1.13;0.52;;;28.50;52.00;;;;;;5050376;28;20036;-66
2023/06/14 11:08:48;;;;;;;0.20;0.20;;;28.50;51.80;;;;;;5064604;28;20135;-66
2023/06/14 11:11:14;;;;;;;0.85;0.32;;;28.50;49.90;;;;;;5047354;28;20045;-67
2023/06/14 11:13:44;;;;;;;1.10;0.40;;;28.60;52.70;;;;;;5047152;28;20098;-66
2023/06/14 11:16:14;;;;;;;0.85;0.40;;;28.50;50.60;;;;;;5046329;28;20037;-66
2023/06/14 11:18:41;;;;;;;1.52;0.60;;;28.40;52.00;;;;;;5047174;28;20573;-67
2023/06/14 11:21:08;;;;;;;0.68;0.40;;;28.40;52.50;;;;;;5032370;28;20037;-66
2023/06/14 11:23:35;;;;;;;0.70;0.55;;;28.50;52.00;;;;;;5053766;28;20033;-66
2023/06/14 11:26:01;;;;;;;0.75;0.47;;;28.60;53.10;;;;;;5047172;28;20037;-67
2023/06/14 11:28:40;;;;;;;0.75;0.30;;;28.60;52.20;;;;;;5030487;28;20495;-67
2023/06/14 11:31:07;;;;;;;1.00;0.52;;;28.50;49.90;;;;;;5047060;28;20099;-66
2023/06/14 11:33:34;;;;;;;2.33;0.30;;;28.40;52.00;;;;;;5047231;28;20443;-66
2023/06/14 11:36:02;;;;;;;6.70;1.40;;;28.40;52.50;;;;;;5047720;28;20103;-67
2023/06/14 11:38:28;;;;;;;0.98;0.50;;;28.40;53.00;;;;;;5048176;28;20041;-65
2023/06/14 11:40:59;;;;;;;0.77;0.20;;;28.60;51.50;;;;;;5046837;28;20539;-67
2023/06/14 11:43:26;;;;;;;0.65;0.32;;;28.60;49.80;;;;;;5046320;28;20041;-67
2023/06/14 11:45:53;;;;;;;0.88;0.30;;;28.50;51.70;;;;;;5047912;28;20098;-67
2023/06/14 11:48:19;;;;;;;0.32;0.17;;;28.50;51.70;;;;;;5047026;28;20041;-67
2023/06/14 11:50:51;;;;;;;3.65;0.90;;;28.50;52.00;;;;;;5046082;28;20119;-67
2023/06/14 11:53:17;;;;;;;2.55;0.50;;;28.60;52.20;;;;;;5058992;28;20071;-66
2023/06/14 11:55:46;;;;;;;1.17;0.50;;;28.80;51.60;;;;;;5067105;28;20067;-66
2023/06/14 11:58:12;;;;;;;0.30;0.20;;;28.90;50.70;;;;;;5052964;28;20047;-66
2023/06/14 12:00:38;;;;;;;0.55;0.30;;;28.80;50.40;;;;;;5070607;28;20487;-67
2023/06/14 12:03:04;;;;;;;2.47;0.45;;;28.70;50.80;;;;;;5053621;28;20094;-66
2023/06/14 12:05:29;;;;;;;0.40;0.30;;;28.60;50.60;;;;;;5070213;28;20040;-66
2023/06/14 12:08:05;;;;;;;0.93;0.40;;;28.50;50.80;;;;;;5069811;28;20036;-66
2023/06/14 12:10:40;;;;;;;0.93;0.45;;;28.30;48.60;;;;;;5054461;28;20041;-66
2023/06/14 12:13:06;;;;;;;0.98;0.38;;;28.10;50.50;;;;;;5063869;28;20123;-66
2023/06/14 12:15:33;;;;;;;0.60;0.30;;;27.90;51.40;;;;;;5071346;28;20119;-65
2023/06/14 12:17:59;;;;;;;0.95;0.47;;;28.10;51.30;;;;;;5070655;28;20052;-67
2023/06/14 12:20:30;;;;;;;1.10;0.57;;;28.10;51.20;;;;;;5071745;28;20037;-66
2023/06/14 12:23:02;;;;;;;0.68;0.30;;;28.20;52.00;;;;;;5071710;28;20088;-67
2023/06/14 12:25:36;;;;;;;0.88;0.50;;;28.20;51.00;;;;;;5064237;28;20033;-66
2023/06/14 12:28:11;;;;;;;0.40;0.30;;;28.30;50.50;;;;;;5051397;28;20044;-67
2023/06/14 12:30:38;;;;;;;15.55;0.63;;;28.40;49.70;;;;;;5049921;28;20083;-66
2023/06/14 12:33:05;;;;;;;0.52;0.38;;;28.30;50.50;;;;;;5050858;28;20045;-66
2023/06/14 12:35:31;;;;;;;0.93;0.47;;;28.30;50.80;;;;;;5049928;28;20044;-66
2023/06/14 12:37:57;;;;;;;0.90;0.40;;;28.30;51.10;;;;;;5049763;28;20043;-67
2023/06/14 12:40:23;;;;;;;1.17;0.65;;;28.30;51.00;;;;;;5049369;28;20417;-68
2023/06/14 12:42:50;;;;;;;1.23;0.50;;;28.30;50.90;;;;;;5050009;28;20041;-66
2023/06/14 12:45:25;;;;;;;0.28;0.15;;;28.30;51.50;;;;;;5049817;28;20068;-67
2023/06/14 12:47:51;;;;;;;0.47;0.20;;;28.40;51.30;;;;;;5055599;28;20075;-66
2023/06/14 12:50:17;;;;;;;0.88;0.30;;;28.50;49.60;;;;;;5050911;28;20095;-66
2023/06/14 12:52:43;;;;;;;0.45;0.28;;;28.30;49.50;;;;;;5057973;28;20053;-66